Time;durP1;ratioP1;P1;durP2;ratioP2;P2;SDS_P1;SDS_P2;PMS_P1;PMS_P2;Temp;Humidity;BMP_temperature;BMP_pressure;BME280_temperature;BME280_humidity;BME280_pressure;Samples;Min_cycle;Max_cycle;Signal;HPM_P1;HPM_P2
2022/02/23 00:20:04;;;;;;;4.40;3.95;;;;;;;;;;5150807;27;20187;31
2022/02/23 00:22:32;;;;;;;4.78;4.25;;;;;;;;;;5153232;27;20607;-65
2022/02/23 00:24:59;;;;;;;4.50;4.10;;;;;;;;;;5159160;27;20097;-66
2022/02/23 00:27:25;;;;;;;6.03;4.35;;;;;;;;;;5159101;27;20461;-65
2022/02/23 00:29:53;;;;;;;5.32;4.82;;;;;;;;;;5159235;27;20098;-67
2022/02/23 00:32:20;;;;;;;4.15;3.75;;;;;;;;;;5159124;27;20165;-70
2022/02/23 00:34:47;;;;;;;5.03;4.53;;;;;;;;;;5140117;27;20078;-68
2022/02/23 00:37:14;;;;;;;5.57;5.07;;;;;;;;;;5158978;27;20173;-68
2022/02/23 00:39:40;;;;;;;6.07;4.45;;;;;;;;;;5158751;27;20661;-70
2022/02/23 00:42:06;;;;;;;4.97;4.50;;;;;;;;;;5139539;27;20514;-69
2022/02/23 00:44:32;;;;;;;5.62;4.50;;;;;;;;;;5159180;27;20098;-70
2022/02/23 00:46:59;;;;;;;5.43;4.55;;;;;;;;;;5122568;27;20481;-70
2022/02/23 00:49:26;;;;;;;5.80;4.37;;;;;;;;;;5123043;27;20473;-70
2022/02/23 00:51:53;;;;;;;6.80;4.72;;;;;;;;;;5140088;27;20090;-69
2022/02/23 00:54:20;;;;;;;5.22;4.55;;;;;;;;;;5139705;27;20168;-68
2022/02/23 00:56:47;;;;;;;4.43;3.53;;;;;;;;;;5139743;27;20089;-70
2022/02/23 00:59:13;;;;;;;6.05;4.53;;;;;;;;;;5140073;27;20175;-69
2022/02/23 01:01:39;;;;;;;5.10;4.60;;;;;;;;;;5158929;27;20094;-70
2022/02/23 01:04:07;;;;;;;5.07;4.37;;;;;;;;;;5139878;27;20100;-69
2022/02/23 01:06:34;;;;;;;4.95;4.37;;;;;;;;;;5158863;27;20748;-66
2022/02/23 01:09:00;;;;;;;6.22;4.53;;;;;;;;;;5158791;27;20089;-64
2022/02/23 01:11:26;;;;;;;4.72;4.32;;;;;;;;;;5158677;27;20146;-65
2022/02/23 01:13:53;;;;;;;4.70;4.25;;;;;;;;;;5159189;27;20179;-66
2022/02/23 01:16:20;;;;;;;4.80;4.30;;;;;;;;;;5139753;27;20156;-65
2022/02/23 01:18:46;;;;;;;4.75;4.25;;;;;;;;;;5159144;27;20098;-65
2022/02/23 01:21:12;;;;;;;4.93;4.22;;;;;;;;;;5158694;27;20131;-65
2022/02/23 01:23:38;;;;;;;5.32;4.60;;;;;;;;;;5158962;27;20509;-66
2022/02/23 01:26:05;;;;;;;5.35;4.35;;;;;;;;;;5158560;27;20208;-67
2022/02/23 01:28:32;;;;;;;5.37;4.03;;;;;;;;;;5158836;27;20504;-66
2022/02/23 01:30:59;;;;;;;7.07;4.35;;;;;;;;;;5139974;27;20073;-66
2022/02/23 01:33:25;;;;;;;5.30;4.30;;;;;;;;;;5158663;27;20094;-64
2022/02/23 01:35:52;;;;;;;5.28;4.35;;;;;;;;;;5158767;27;20112;-67
2022/02/23 01:38:18;;;;;;;5.10;4.60;;;;;;;;;;5158574;27;20177;-67
2022/02/23 01:40:44;;;;;;;6.03;5.10;;;;;;;;;;5158748;27;20142;-67
2022/02/23 01:43:11;;;;;;;5.45;4.22;;;;;;;;;;5139664;27;20055;-67
2022/02/23 01:45:37;;;;;;;5.45;4.70;;;;;;;;;;5158411;27;20161;-65
2022/02/23 01:48:04;;;;;;;4.90;4.40;;;;;;;;;;5158533;27;20160;-65
2022/02/23 01:50:31;;;;;;;5.43;4.85;;;;;;;;;;5122754;27;20102;-66
2022/02/23 01:52:57;;;;;;;4.95;4.45;;;;;;;;;;5158470;27;20106;-66
2022/02/23 01:55:23;;;;;;;5.18;4.28;;;;;;;;;;5158277;27;20175;-65
2022/02/23 01:57:50;;;;;;;5.45;4.30;;;;;;;;;;5158873;27;20134;-63
2022/02/23 02:00:17;;;;;;;5.95;4.65;;;;;;;;;;5122736;27;20078;-66
2022/02/23 02:02:45;;;;;;;6.12;4.62;;;;;;;;;;5139832;27;20146;-66
2022/02/23 02:05:11;;;;;;;5.57;4.78;;;;;;;;;;5139874;27;20101;-66
2022/02/23 02:07:37;;;;;;;6.07;4.28;;;;;;;;;;5139857;27;20497;-66
2022/02/23 02:10:05;;;;;;;6.15;4.93;;;;;;;;;;5158266;27;20505;-67
2022/02/23 02:12:32;;;;;;;6.50;4.90;;;;;;;;;;5139516;27;20492;-66
2022/02/23 02:14:59;;;;;;;5.50;4.70;;;;;;;;;;5139560;27;20187;-67
2022/02/23 02:17:26;;;;;;;5.10;4.60;;;;;;;;;;5139880;27;20647;-67
2022/02/23 02:19:52;;;;;;;5.28;4.78;;;;;;;;;;5158405;27;20106;-68
2022/02/23 02:22:20;;;;;;;8.63;5.05;;;;;;;;;;5158461;27;20089;-68
2022/02/23 02:24:47;;;;;;;6.65;5.03;;;;;;;;;;5158564;27;20081;-66
2022/02/23 02:27:15;;;;;;;7.32;5.28;;;;;;;;;;5139487;27;20093;-66
2022/02/23 02:29:42;;;;;;;6.22;4.95;;;;;;;;;;5158204;27;20101;-67
2022/02/23 02:32:09;;;;;;;7.00;5.47;;;;;;;;;;5158511;27;20082;-67
2022/02/23 02:34:36;;;;;;;6.78;5.35;;;;;;;;;;5158642;27;20134;-64
2022/02/23 02:37:03;;;;;;;6.57;5.32;;;;;;;;;;5122793;27;20185;-67
2022/02/23 02:39:30;;;;;;;7.62;5.47;;;;;;;;;;5158324;27;20090;-67
2022/02/23 02:41:56;;;;;;;5.62;5.12;;;;;;;;;;5158341;27;20102;-67
2022/02/23 02:44:23;;;;;;;5.93;5.32;;;;;;;;;;5158442;27;20085;-67
2022/02/23 02:46:49;;;;;;;6.30;5.22;;;;;;;;;;5158084;27;20171;-67
2022/02/23 02:49:16;;;;;;;6.18;5.37;;;;;;;;;;5141182;27;20138;-67
2022/02/23 02:51:42;;;;;;;8.30;4.97;;;;;;;;;;5159654;27;20196;-66
2022/02/23 02:54:09;;;;;;;5.72;5.03;;;;;;;;;;5159835;27;20090;-67
2022/02/23 02:56:36;;;;;;;6.20;5.20;;;;;;;;;;5159348;27;20252;-67
2022/02/23 02:59:03;;;;;;;7.60;5.40;;;;;;;;;;5159572;27;20118;-67
2022/02/23 03:01:30;;;;;;;6.93;4.95;;;;;;;;;;5140438;27;20109;-67
2022/02/23 03:03:56;;;;;;;7.22;5.55;;;;;;;;;;5140633;27;20077;-65
2022/02/23 03:06:22;;;;;;;7.10;5.40;;;;;;;;;;5140627;27;20086;-64
2022/02/23 03:08:49;;;;;;;7.30;5.50;;;;;;;;;;5140755;27;20112;-65
2022/02/23 03:11:16;;;;;;;6.12;5.32;;;;;;;;;;5159696;27;20105;-66
2022/02/23 03:13:43;;;;;;;6.35;5.35;;;;;;;;;;5159767;27;20098;-64
2022/02/23 03:16:10;;;;;;;6.82;5.55;;;;;;;;;;5159385;27;20129;-65
2022/02/23 03:18:36;;;;;;;6.55;5.82;;;;;;;;;;5159653;27;20105;-64
2022/02/23 03:21:03;;;;;;;5.97;5.37;;;;;;;;;;5159363;27;20572;-65
2022/02/23 03:23:29;;;;;;;7.00;6.20;;;;;;;;;;5160035;27;20082;-65
2022/02/23 03:25:56;;;;;;;7.15;6.32;;;;;;;;;;5159417;27;20090;-65
2022/02/23 03:28:22;;;;;;;7.75;5.60;;;;;;;;;;5159707;27;20142;-64
2022/02/23 03:30:48;;;;;;;6.18;5.45;;;;;;;;;;5159523;27;20171;-64
2022/02/23 03:33:15;;;;;;;6.43;5.72;;;;;;;;;;5140823;27;20081;-64
2022/02/23 03:35:42;;;;;;;8.30;5.75;;;;;;;;;;5159478;27;20110;-66
2022/02/23 03:38:09;;;;;;;5.10;4.60;;;;;;;;;;5159527;27;20176;-66
2022/02/23 03:40:35;;;;;;;7.10;6.07;;;;;;;;;;5159452;27;20113;-66
2022/02/23 03:43:02;;;;;;;7.75;6.00;;;;;;;;;;5123437;27;20106;-66
2022/02/23 03:45:29;;;;;;;6.07;5.25;;;;;;;;;;5140505;27;20544;-68
2022/02/23 03:47:55;;;;;;;6.20;4.90;;;;;;;;;;5159230;27;20517;-68
2022/02/23 03:50:21;;;;;;;7.15;5.70;;;;;;;;;;5159189;27;20082;-68
2022/02/23 03:52:47;;;;;;;7.55;4.95;;;;;;;;;;5159549;27;20074;-69
2022/02/23 03:55:14;;;;;;;7.68;5.30;;;;;;;;;;5159066;27;20220;-67
2022/02/23 03:57:41;;;;;;;9.35;6.03;;;;;;;;;;5159082;27;20157;-67
2022/02/23 04:00:10;;;;;;;7.35;6.28;;;;;;;;;;5157464;27;20528;-67
2022/02/23 04:02:36;;;;;;;7.18;5.55;;;;;;;;;;5140493;27;20110;-67
2022/02/23 04:05:03;;;;;;;7.32;5.30;;;;;;;;;;5159219;27;20633;-68
2022/02/23 04:07:29;;;;;;;7.03;5.30;;;;;;;;;;5159378;27;20139;-67
2022/02/23 04:09:55;;;;;;;7.22;5.62;;;;;;;;;;5159008;27;20187;-68
2022/02/23 04:12:21;;;;;;;6.90;5.47;;;;;;;;;;5158960;27;20175;-67
2022/02/23 04:14:48;;;;;;;5.72;5.12;;;;;;;;;;5159307;27;20101;-67
2022/02/23 04:17:14;;;;;;;5.53;5.00;;;;;;;;;;5159065;27;20158;-67
2022/02/23 04:19:40;;;;;;;5.37;4.87;;;;;;;;;;5159126;27;20094;-66
2022/02/23 04:22:07;;;;;;;6.87;5.07;;;;;;;;;;5158730;27;20102;-67
2022/02/23 04:24:33;;;;;;;6.25;5.43;;;;;;;;;;5158821;27;20097;-66
2022/02/23 04:27:00;;;;;;;4.95;4.53;;;;;;;;;;5158948;27;20085;-67
2022/02/23 04:29:29;;;;;;;5.47;4.97;;;;;;;;;;5159225;27;20098;-64
2022/02/23 04:31:56;;;;;;;6.15;5.32;;;;;;;;;;5140552;27;20175;-65
2022/02/23 04:34:23;;;;;;;6.22;5.20;;;;;;;;;;5089253;27;20077;-66
2022/02/23 04:36:50;;;;;;;6.75;5.03;;;;;;;;;;5158798;27;20241;-67
2022/02/23 04:39:16;;;;;;;5.97;4.95;;;;;;;;;;5140104;27;20105;-67
2022/02/23 04:41:42;;;;;;;4.93;4.43;;;;;;;;;;5159124;27;20445;-66
2022/02/23 04:44:09;;;;;;;5.65;5.10;;;;;;;;;;5159057;27;20466;-64
2022/02/23 04:46:36;;;;;;;5.43;4.78;;;;;;;;;;5158936;27;20108;-64
2022/02/23 04:49:02;;;;;;;5.35;4.90;;;;;;;;;;5158811;27;20101;-68
2022/02/23 04:51:30;;;;;;;5.85;5.05;;;;;;;;;;5157144;27;20478;-67
2022/02/23 04:54:00;;;;;;;5.43;4.93;;;;;;;;;;5158827;27;20156;-66
2022/02/23 04:56:27;;;;;;;5.40;4.90;;;;;;;;;;5158634;27;20489;-66
2022/02/23 04:58:53;;;;;;;5.47;4.97;;;;;;;;;;5139545;27;20105;-65
2022/02/23 05:01:20;;;;;;;7.18;4.75;;;;;;;;;;5158575;27;20090;-65
2022/02/23 05:03:46;;;;;;;5.75;5.10;;;;;;;;;;5157155;27;20130;-68
2022/02/23 05:06:12;;;;;;;5.75;4.20;;;;;;;;;;5158591;27;20070;-66
2022/02/23 05:08:38;;;;;;;5.07;4.50;;;;;;;;;;5158626;27;20460;-69
2022/02/23 05:11:05;;;;;;;5.25;4.55;;;;;;;;;;5158745;27;20690;-64
2022/02/23 05:13:32;;;;;;;5.78;5.20;;;;;;;;;;5158843;27;20118;-67
2022/02/23 05:16:00;;;;;;;5.65;4.90;;;;;;;;;;5158787;27;20087;-67
2022/02/23 05:18:27;;;;;;;5.10;4.60;;;;;;;;;;5139796;27;20098;-67
2022/02/23 05:20:55;;;;;;;5.25;4.62;;;;;;;;;;5158236;27;20102;-67
2022/02/23 05:23:22;;;;;;;5.65;4.75;;;;;;;;;;5158716;27;20061;-66
2022/02/23 05:25:48;;;;;;;5.20;4.70;;;;;;;;;;5158492;27;20114;-67
2022/02/23 05:28:15;;;;;;;5.45;4.50;;;;;;;;;;5139711;27;20085;-69
2022/02/23 05:30:41;;;;;;;4.55;4.10;;;;;;;;;;5158366;27;20529;-68
2022/02/23 05:33:07;;;;;;;5.97;4.70;;;;;;;;;;5158355;27;20485;-71
2022/02/23 05:35:34;;;;;;;5.47;4.62;;;;;;;;;;5156706;27;20188;-69
2022/02/23 05:38:00;;;;;;;5.00;4.47;;;;;;;;;;5158385;27;20098;-65
2022/02/23 05:40:26;;;;;;;4.43;3.97;;;;;;;;;;5158232;27;20100;-66
2022/02/23 05:42:54;;;;;;;5.07;4.57;;;;;;;;;;5158432;27;20088;-66
2022/02/23 05:45:20;;;;;;;5.12;4.40;;;;;;;;;;5158325;27;20470;-66
2022/02/23 05:47:47;;;;;;;6.90;4.78;;;;;;;;;;5158286;27;20173;-65
2022/02/23 05:50:13;;;;;;;8.30;4.93;;;;;;;;;;5158350;27;20093;-65
2022/02/23 05:52:39;;;;;;;6.12;5.18;;;;;;;;;;5122605;27;20100;-66
2022/02/23 05:55:06;;;;;;;7.03;4.90;;;;;;;;;;5158135;27;20099;-66
2022/02/23 05:57:33;;;;;;;6.45;4.10;;;;;;;;;;5139502;27;20485;-68
2022/02/23 05:59:59;;;;;;;5.45;4.95;;;;;;;;;;5158493;27;20109;-67
2022/02/23 06:02:26;;;;;;;5.37;4.40;;;;;;;;;;5158726;27;20179;-67
2022/02/23 06:04:52;;;;;;;7.10;4.43;;;;;;;;;;5157836;27;20122;-69
2022/02/23 06:07:18;;;;;;;5.90;4.82;;;;;;;;;;5158834;27;20074;-68
2022/02/23 06:09:44;;;;;;;5.28;4.75;;;;;;;;;;5158401;27;20074;-68
2022/02/23 06:12:10;;;;;;;5.03;4.25;;;;;;;;;;5158550;27;20218;-67
2022/02/23 06:14:37;;;;;;;5.60;4.57;;;;;;;;;;5158686;27;20093;-67
2022/02/23 06:17:03;;;;;;;5.95;4.70;;;;;;;;;;5158459;27;20467;-65
2022/02/23 06:19:30;;;;;;;5.50;5.00;;;;;;;;;;5139851;27;20165;-66
2022/02/23 06:21:56;;;;;;;6.55;5.10;;;;;;;;;;5158451;27;20516;-66
2022/02/23 06:24:23;;;;;;;5.85;5.35;;;;;;;;;;5158522;27;20098;-66
2022/02/23 06:26:49;;;;;;;5.55;5.05;;;;;;;;;;5158905;27;20192;-67
2022/02/23 06:29:15;;;;;;;7.12;5.00;;;;;;;;;;5158540;27;20450;-65
2022/02/23 06:31:44;;;;;;;6.40;5.22;;;;;;;;;;5158620;27;20082;-64
2022/02/23 06:34:12;;;;;;;7.18;5.95;;;;;;;;;;5158638;27;20193;-65
2022/02/23 06:36:38;;;;;;;6.93;5.50;;;;;;;;;;5158053;27;20502;-67
2022/02/23 06:39:04;;;;;;;6.15;5.55;;;;;;;;;;5158535;27;20125;-68
2022/02/23 06:41:31;;;;;;;6.78;5.87;;;;;;;;;;5158342;27;20171;-67
2022/02/23 06:43:57;;;;;;;7.18;6.20;;;;;;;;;;5158499;27;20478;-67
2022/02/23 06:46:24;;;;;;;7.10;6.05;;;;;;;;;;5157968;27;20070;-70
2022/02/23 06:48:50;;;;;;;7.40;5.57;;;;;;;;;;5158483;27;20146;-68
2022/02/23 06:51:19;;;;;;;6.87;6.20;;;;;;;;;;5158417;27;20090;-66
2022/02/23 06:53:47;;;;;;;7.53;6.68;;;;;;;;;;5158479;27;20085;-68
2022/02/23 06:56:14;;;;;;;6.95;5.47;;;;;;;;;;5139824;27;20485;-69
2022/02/23 06:58:49;;;;;;;8.00;6.43;;;;;;;;;;5158502;27;20561;-64
2022/02/23 07:01:16;;;;;;;;;;;;;;;;;;5139876;27;20078;-67
2022/02/23 07:03:44;;;;;;;6.15;5.50;;;;;;;;;;5139466;27;19973;-67
2022/02/23 07:06:11;;;;;;;6.15;5.55;;;;;;;;;;5139387;27;20142;-68
2022/02/23 07:08:38;;;;;;;9.10;7.30;;;;;;;;;;5158554;27;20090;-67
2022/02/23 07:11:04;;;;;;;9.52;6.45;;;;;;;;;;5158196;27;20066;-68
2022/02/23 07:13:30;;;;;;;8.15;6.53;;;;;;;;;;5158241;27;20104;-68
2022/02/23 07:15:56;;;;;;;6.82;5.85;;;;;;;;;;5158186;27;20075;-68
2022/02/23 07:18:23;;;;;;;8.25;6.70;;;;;;;;;;5158318;27;20094;-66
2022/02/23 07:20:49;;;;;;;6.35;5.70;;;;;;;;;;5157947;27;20398;-67
2022/02/23 07:23:15;;;;;;;7.97;7.00;;;;;;;;;;5158435;27;20114;-68
2022/02/23 07:25:41;;;;;;;5.90;5.28;;;;;;;;;;5139182;27;20153;-69
2022/02/23 07:28:07;;;;;;;5.62;5.07;;;;;;;;;;5158216;27;20150;-70
2022/02/23 07:30:33;;;;;;;5.32;4.72;;;;;;;;;;5139480;27;20077;-69
2022/02/23 07:33:00;;;;;;;6.03;4.78;;;;;;;;;;5159800;27;20086;-68
2022/02/23 07:35:27;;;;;;;5.47;4.43;;;;;;;;;;5159671;27;20172;-68
2022/02/23 07:37:54;;;;;;;5.18;3.92;;;;;;;;;;5159590;27;20109;-68
2022/02/23 07:40:23;;;;;;;6.18;4.30;;;;;;;;;;5159326;27;20518;-68
2022/02/23 07:42:50;;;;;;;7.15;5.82;;;;;;;;;;5140778;27;20988;-73
2022/02/23 07:45:16;;;;;;;6.95;4.95;;;;;;;;;;5140752;27;20079;-68
2022/02/23 07:47:43;;;;;;;8.20;5.37;;;;;;;;;;5159325;27;20098;-67
2022/02/23 07:50:13;;;;;;;5.85;4.68;;;;;;;;;;5140421;27;20579;-68
2022/02/23 07:52:39;;;;;;;7.12;6.40;;;;;;;;;;5159681;27;20524;-67
2022/02/23 07:55:06;;;;;;;8.57;6.03;;;;;;;;;;5160112;27;20106;-69
2022/02/23 07:57:33;;;;;;;12.23;9.55;;;;;;;;;;5123577;27;20505;-72
2022/02/23 07:59:59;;;;;;;9.95;7.72;;;;;;;;;;5159371;27;20105;-68
2022/02/23 08:02:31;;;;;;;7.22;5.90;;;;;;;;;;5159092;27;20465;-67
2022/02/23 08:04:57;;;;;;;6.05;5.18;;;;;;;;;;5159194;27;20493;-65
2022/02/23 08:07:23;;;;;;;6.18;4.80;;;;;;;;;;5140450;27;20490;-69
2022/02/23 08:09:50;;;;;;;5.32;4.15;;;;;;;;;;5159072;27;20548;-67
2022/02/23 08:12:16;;;;;;;5.32;4.82;;;;;;;;;;5158947;27;20094;-68
2022/02/23 08:14:43;;;;;;;4.50;3.90;;;;;;;;;;5159173;27;20509;-67
2022/02/23 08:19:53;;;;;;;5.22;4.10;;;;;;;;;;5158968;27;20085;-69
2022/02/23 08:22:27;;;;;;;3.12;2.87;;;;;;;;;;5157049;27;20086;-69
2022/02/23 08:24:54;;;;;;;2.78;2.53;;;;;;;;;;5140632;27;20082;-70
2022/02/23 08:27:21;;;;;;;3.12;2.92;;;;;;;;;;5158720;27;20146;-67
2022/02/23 08:29:49;;;;;;;3.22;2.92;;;;;;;;;;5158905;27;20102;-67
2022/02/23 08:32:18;;;;;;;3.65;3.35;;;;;;;;;;5158623;27;20086;-68
2022/02/23 08:34:45;;;;;;;3.45;3.15;;;;;;;;;;5106107;27;20075;-66
2022/02/23 08:37:12;;;;;;;3.40;3.10;;;;;;;;;;5156642;27;20083;-67
2022/02/23 08:39:39;;;;;;;3.90;3.60;;;;;;;;;;5158383;27;20086;-67
2022/02/23 08:42:07;;;;;;;6.53;5.85;;;;;;;;;;5139272;27;20145;-67
2022/02/23 08:44:34;;;;;;;4.25;3.85;;;;;;;;;;5158512;27;20138;-68
2022/02/23 08:47:00;;;;;;;2.92;2.72;;;;;;;;;;5158830;27;20101;-67
2022/02/23 08:49:26;;;;;;;2.97;2.78;;;;;;;;;;5158953;27;20533;-67
2022/02/23 08:51:52;;;;;;;6.22;5.07;;;;;;;;;;5158850;27;20503;-67
2022/02/23 08:54:19;;;;;;;5.25;4.75;;;;;;;;;;5158711;27;20094;-66
2022/02/23 08:56:46;;;;;;;4.40;4.00;;;;;;;;;;5139550;27;20093;-66
2022/02/23 08:59:13;;;;;;;4.07;3.78;;;;;;;;;;5158642;27;20097;-66
2022/02/23 09:01:39;;;;;;;5.50;5.00;;;;;;;;;;5158686;27;20102;-63
2022/02/23 09:04:06;;;;;;;4.50;4.10;;;;;;;;;;5159030;27;20578;-66
2022/02/23 09:06:34;;;;;;;4.55;4.20;;;;;;;;;;5158449;27;20075;-66
2022/02/23 09:09:02;;;;;;;4.40;4.00;;;;;;;;;;5158866;27;20118;-67
2022/02/23 09:11:28;;;;;;;4.62;4.22;;;;;;;;;;5139301;27;20394;-68
2022/02/23 09:13:54;;;;;;;4.28;3.90;;;;;;;;;;5158536;27;20163;-67
2022/02/23 09:16:20;;;;;;;3.80;3.40;;;;;;;;;;5158366;27;20114;-67
2022/02/23 09:18:46;;;;;;;3.55;3.25;;;;;;;;;;5139517;27;20236;-65
2022/02/23 09:21:13;;;;;;;4.40;4.00;;;;;;;;;;5139458;27;20472;-65
2022/02/23 09:23:39;;;;;;;5.43;4.70;;;;;;;;;;5158974;27;20070;-65
2022/02/23 09:26:07;;;;;;;3.78;3.47;;;;;;;;;;5158266;27;20098;-65
2022/02/23 09:28:34;;;;;;;4.35;4.05;;;;;;;;;;5158593;27;20062;-65
2022/02/23 09:31:01;;;;;;;4.72;3.95;;;;;;;;;;5158294;27;20086;-66
2022/02/23 09:33:27;;;;;;;3.87;3.58;;;;;;;;;;5158508;27;20083;-66
2022/02/23 09:35:56;;;;;;;3.92;3.60;;;;;;;;;;5158368;27;20109;-65
2022/02/23 09:38:22;;;;;;;3.30;3.00;;;;;;;;;;5158439;27;20086;-66
2022/02/23 09:40:48;;;;;;;4.28;3.87;;;;;;;;;;5139257;27;20172;-65
2022/02/23 09:43:15;;;;;;;6.53;4.90;;;;;;;;;;5139296;27;20395;-68
2022/02/23 09:45:46;;;;;;;7.28;6.57;;;;;;;;;;5158350;27;20103;-66
2022/02/23 09:48:12;;;;;;;3.50;3.20;;;;;;;;;;5158434;27;20086;-65
2022/02/23 09:50:38;;;;;;;3.87;3.47;;;;;;;;;;5139283;27;20173;-64
2022/02/23 09:53:06;;;;;;;3.40;3.10;;;;;;;;;;5156390;27;20173;-63
2022/02/23 09:55:36;;;;;;;4.50;4.10;;;;;;;;;;5158294;27;20091;-65
2022/02/23 09:58:05;;;;;;;3.90;3.60;;;;;;;;;;5158191;27;20179;-66
2022/02/23 10:00:32;;;;;;;3.30;3.03;;;;;;;;;;5158062;27;20109;-65
2022/02/23 10:03:07;;;;;;;2.87;2.67;;;;;;;;;;5140661;27;20147;-65
2022/02/23 10:05:37;;;;;;;2.65;2.45;;;;;;;;;;5139108;27;20182;-63
2022/02/23 10:08:09;;;;;;;2.97;2.75;;;;;;;;;;5158626;27;20092;-64
2022/02/23 10:10:39;;;;;;;4.50;4.07;;;;;;;;;;5158201;27;20086;-64
2022/02/23 10:13:07;;;;;;;3.00;2.80;;;;;;;;;;5158238;27;20169;-64
2022/02/23 10:15:42;;;;;;;3.00;2.80;;;;;;;;;;5139715;27;20265;-65
2022/02/23 10:18:20;;;;;;;2.83;2.62;;;;;;;;;;5158244;27;20082;-63
2022/02/23 10:21:11;;;;;;;4.07;2.30;;;;;;;;;;5157920;27;20078;-63
2022/02/23 10:24:19;;;;;;;2.60;2.40;;;;;;;;;;5142461;27;20081;-64
2022/02/23 10:27:26;;;;;;;2.47;2.22;;;;;;;;;;5131223;27;20145;-64
2022/02/23 10:30:32;;;;;;;2.33;2.10;;;;;;;;;;5119549;27;20140;-64
2022/02/23 10:33:39;;;;;;;2.83;2.15;;;;;;;;;;5142453;27;20146;-63
2022/02/23 10:36:33;;;;;;;1.80;1.70;;;;;;;;;;5157043;27;20090;-65
2022/02/23 10:39:07;;;;;;;2.10;1.90;;;;;;;;;;5158594;27;20172;-64
2022/02/23 10:41:36;;;;;;;2.10;1.90;;;;;;;;;;5158384;27;20215;-64
2022/02/23 10:44:05;;;;;;;2.50;2.30;;;;;;;;;;5158614;27;20180;-63
2022/02/23 10:46:32;;;;;;;2.30;2.10;;;;;;;;;;5158465;27;20133;-63
2022/02/23 10:49:01;;;;;;;2.17;1.90;;;;;;;;;;5158652;27;20501;-65
2022/02/23 10:51:36;;;;;;;1.80;1.70;;;;;;;;;;5158024;27;20086;-65
2022/02/23 10:54:03;;;;;;;2.12;1.92;;;;;;;;;;5158467;27;20074;-67
2022/02/23 10:56:35;;;;;;;2.12;1.92;;;;;;;;;;5157980;27;20158;-65
2022/02/23 10:59:06;;;;;;;2.50;2.30;;;;;;;;;;5139151;27;20090;-65
2022/02/23 11:01:33;;;;;;;2.20;2.00;;;;;;;;;;5139126;27;20509;-65
2022/02/23 11:03:59;;;;;;;1.77;1.67;;;;;;;;;;5139144;27;20450;-65
2022/02/23 11:06:26;;;;;;;2.25;1.67;;;;;;;;;;5156306;27;20589;-64
2022/02/23 11:08:54;;;;;;;2.42;2.22;;;;;;;;;;5122833;27;20180;-64
2022/02/23 11:11:21;;;;;;;5.00;4.35;;;;;;;;;;5158774;27;20086;-65
2022/02/23 11:13:48;;;;;;;4.10;3.70;;;;;;;;;;5159630;27;20081;-65
2022/02/23 11:16:15;;;;;;;2.62;2.42;;;;;;;;;;5158962;27;20086;-67
2022/02/23 11:18:43;;;;;;;1.75;1.65;;;;;;;;;;5140572;27;20581;-65
2022/02/23 11:21:16;;;;;;;2.12;1.85;;;;;;;;;;5140121;27;20407;-63
2022/02/23 11:23:44;;;;;;;3.70;2.00;;;;;;;;;;5159392;27;20141;-64
2022/02/23 11:26:14;;;;;;;1.75;1.55;;;;;;;;;;5159117;27;20104;-64
2022/02/23 11:28:51;;;;;;;2.67;2.35;;;;;;;;;;5140531;27;20074;-65
2022/02/23 11:31:18;;;;;;;2.30;2.10;;;;;;;;;;5139655;27;20061;-65
2022/02/23 11:33:47;;;;;;;1.70;1.60;;;;;;;;;;5140590;27;20109;-65
2022/02/23 11:36:36;;;;;;;4.70;4.30;;;;;;;;;;5159434;27;20093;-65
2022/02/23 11:39:05;;;;;;;3.35;2.65;;;;;;;;;;5140540;27;20067;-65
2022/02/23 11:41:33;;;;;;;2.10;1.90;;;;;;;;;;5158555;27;20490;-64
2022/02/23 11:44:08;;;;;;;1.77;1.67;;;;;;;;;;5159474;27;20101;-65
2022/02/23 11:46:50;;;;;;;1.90;1.80;;;;;;;;;;5157420;27;20393;-65
2022/02/23 11:49:17;;;;;;;1.75;1.65;;;;;;;;;;5159350;27;20109;-66
2022/02/23 11:51:44;;;;;;;1.60;1.50;;;;;;;;;;5158530;27;20066;-66
2022/02/23 11:54:13;;;;;;;1.80;1.70;;;;;;;;;;5159611;27;20485;-65
2022/02/23 11:56:50;;;;;;;1.70;1.60;;;;;;;;;;5159449;27;20081;-65
2022/02/23 11:59:50;;;;;;;2.08;1.65;;;;;;;;;;5123324;27;20126;-65
2022/02/23 12:02:30;;;;;;;1.80;1.70;;;;;;;;;;5159197;27;20619;-65
2022/02/23 12:05:03;;;;;;;2.05;1.75;;;;;;;;;;5141285;27;20059;-65
2022/02/23 12:07:49;;;;;;;1.90;1.80;;;;;;;;;;5158985;27;20096;-64
2022/02/23 12:10:27;;;;;;;2.10;1.90;;;;;;;;;;5158793;27;20090;-63
2022/02/23 12:12:59;;;;;;;1.80;1.70;;;;;;;;;;5156845;27;20086;-66
2022/02/23 12:15:35;;;;;;;1.65;1.55;;;;;;;;;;5159225;27;20172;-64
2022/02/23 12:18:16;;;;;;;1.60;1.50;;;;;;;;;;5140623;27;20524;-64
2022/02/23 12:21:01;;;;;;;1.65;1.55;;;;;;;;;;5142256;27;20071;-62
2022/02/23 12:24:13;;;;;;;2.20;2.00;;;;;;;;;;5142951;27;20107;-63
2022/02/23 12:26:53;;;;;;;1.90;1.80;;;;;;;;;;5159151;27;20081;-64
2022/02/23 12:29:59;;;;;;;2.00;1.90;;;;;;;;;;5120194;27;20545;-61
2022/02/23 12:32:33;;;;;;;2.08;1.83;;;;;;;;;;5158409;27;20082;-61
2022/02/23 12:35:39;;;;;;;1.67;1.58;;;;;;;;;;5143414;27;20489;-62
2022/02/23 12:38:10;;;;;;;1.80;1.70;;;;;;;;;;5140632;27;20066;-61
2022/02/23 12:41:22;;;;;;;2.08;1.95;;;;;;;;;;5142904;27;20101;-62
2022/02/23 12:44:26;;;;;;;3.28;1.92;;;;;;;;;;5158731;27;20074;-62
2022/02/23 12:47:09;;;;;;;3.58;1.83;;;;;;;;;;5142435;27;20082;-61
2022/02/23 12:50:15;;;;;;;3.62;3.28;;;;;;;;;;5131082;27;20126;-61
2022/02/23 12:53:19;;;;;;;2.92;2.50;;;;;;;;;;5156950;27;20628;-63
2022/02/23 12:56:28;;;;;;;2.40;2.20;;;;;;;;;;5128404;27;20086;-63
2022/02/23 12:59:35;;;;;;;2.22;1.90;;;;;;;;;;5117789;27;20109;-63
2022/02/23 13:02:41;;;;;;;1.80;1.70;;;;;;;;;;5141137;27;20427;-63
2022/02/23 13:05:47;;;;;;;2.08;1.95;;;;;;;;;;5113984;27;20871;-62
2022/02/23 13:08:53;;;;;;;1.85;1.75;;;;;;;;;;5123113;27;20183;-63
2022/02/23 13:12:00;;;;;;;2.45;2.25;;;;;;;;;;5141431;27;20109;-63
2022/02/23 13:15:06;;;;;;;2.58;2.37;;;;;;;;;;5119683;27;20102;-63
2022/02/23 13:18:12;;;;;;;3.00;2.80;;;;;;;;;;5131099;27;20073;-62
2022/02/23 13:21:18;;;;;;;2.90;2.70;;;;;;;;;;5130993;27;20410;-61
2022/02/23 13:23:56;;;;;;;3.53;3.22;;;;;;;;;;5138905;27;20105;-61
2022/02/23 13:26:32;;;;;;;2.37;2.10;;;;;;;;;;5158352;27;20112;-63
2022/02/23 13:29:02;;;;;;;2.20;2.00;;;;;;;;;;5157699;27;20134;-62
2022/02/23 13:31:43;;;;;;;2.30;2.10;;;;;;;;;;5157202;27;20114;-62
2022/02/23 13:34:36;;;;;;;1.75;1.65;;;;;;;;;;5157270;27;20117;-61
2022/02/23 13:37:22;;;;;;;1.70;1.60;;;;;;;;;;5151112;27;20528;-63
2022/02/23 13:39:58;;;;;;;1.60;1.50;;;;;;;;;;5158823;27;20058;-62
2022/02/23 13:42:36;;;;;;;1.55;1.45;;;;;;;;;;5158254;27;20101;-62
2022/02/23 13:45:23;;;;;;;1.70;1.55;;;;;;;;;;5105300;27;20119;-62
2022/02/23 13:47:52;;;;;;;2.70;2.50;;;;;;;;;;5157147;27;20085;-62
2022/02/23 13:50:24;;;;;;;1.50;1.40;;;;;;;;;;5158456;27;20492;-61
2022/02/23 13:52:52;;;;;;;2.70;2.10;;;;;;;;;;5158613;27;20607;-60
2022/02/23 13:55:23;;;;;;;1.45;1.35;;;;;;;;;;5156971;27;20146;-62
2022/02/23 13:57:55;;;;;;;1.77;1.67;;;;;;;;;;5156004;27;20165;-62
2022/02/23 14:00:32;;;;;;;1.58;1.48;;;;;;;;;;5156559;27;20193;-62
2022/02/23 14:03:06;;;;;;;8.60;7.70;;;;;;;;;;5136893;27;20120;-61
2022/02/23 14:05:33;;;;;;;2.17;2.00;;;;;;;;;;5156801;27;20133;-61
2022/02/23 14:08:05;;;;;;;3.03;2.72;;;;;;;;;;5156639;27;20098;-62
2022/02/23 14:10:33;;;;;;;2.33;1.98;;;;;;;;;;5157589;27;20086;-62
2022/02/23 14:13:11;;;;;;;1.55;1.45;;;;;;;;;;5158003;27;20125;-62
2022/02/23 14:15:39;;;;;;;1.80;1.70;;;;;;;;;;5158549;27;20086;-65
2022/02/23 14:18:25;;;;;;;2.40;2.20;;;;;;;;;;5158033;27;20109;-62
2022/02/23 14:20:54;;;;;;;1.80;1.70;;;;;;;;;;5158102;27;20083;-63
2022/02/23 14:23:20;;;;;;;1.87;1.77;;;;;;;;;;5122123;27;20098;-62
2022/02/23 14:25:56;;;;;;;2.20;2.03;;;;;;;;;;5158394;27;20098;-63
2022/02/23 14:28:37;;;;;;;1.95;1.85;;;;;;;;;;5158342;27;20465;-63
2022/02/23 14:31:23;;;;;;;1.90;1.80;;;;;;;;;;5139151;27;20090;-62
2022/02/23 14:33:51;;;;;;;2.42;1.73;;;;;;;;;;5157793;27;20070;-62
2022/02/23 14:36:17;;;;;;;2.40;2.20;;;;;;;;;;5158205;27;20106;-62
2022/02/23 14:38:44;;;;;;;1.95;1.85;;;;;;;;;;5158113;27;20489;-62
2022/02/23 14:41:10;;;;;;;2.30;2.10;;;;;;;;;;5159559;27;20554;-63
2022/02/23 14:43:36;;;;;;;2.33;2.12;;;;;;;;;;5140817;27;20101;-62
2022/02/23 14:46:02;;;;;;;2.35;2.22;;;;;;;;;;5159401;27;20429;-63
2022/02/23 14:48:28;;;;;;;2.37;2.17;;;;;;;;;;5159545;27;20160;-63
2022/02/23 14:50:56;;;;;;;2.42;2.22;;;;;;;;;;5159442;27;20121;-62
2022/02/23 14:53:24;;;;;;;2.72;2.50;;;;;;;;;;5159732;27;20098;-62
2022/02/23 14:55:52;;;;;;;2.42;2.22;;;;;;;;;;5159381;27;20089;-62
2022/02/23 14:58:18;;;;;;;2.65;1.83;;;;;;;;;;5159305;27;20218;-64
2022/02/23 15:00:44;;;;;;;2.55;2.33;;;;;;;;;;5159584;27;20106;-64
2022/02/23 15:03:10;;;;;;;3.15;2.85;;;;;;;;;;5159514;27;20518;-65
2022/02/23 15:05:37;;;;;;;3.37;3.08;;;;;;;;;;5159769;27;20252;-64
2022/02/23 15:08:05;;;;;;;2.45;2.25;;;;;;;;;;5159681;27;20078;-63
2022/02/23 15:10:33;;;;;;;2.72;2.53;;;;;;;;;;5159207;27;20157;-62
2022/02/23 15:13:00;;;;;;;2.85;2.65;;;;;;;;;;5159280;27;20086;-64
2022/02/23 15:15:35;;;;;;;2.58;2.37;;;;;;;;;;5159305;27;20074;-64
2022/02/23 15:18:03;;;;;;;2.97;2.78;;;;;;;;;;5159565;27;20184;-64
2022/02/23 15:20:29;;;;;;;3.75;3.45;;;;;;;;;;5159272;27;20082;-64
2022/02/23 15:23:03;;;;;;;2.92;2.72;;;;;;;;;;5159612;27;20085;-65
2022/02/23 15:25:32;;;;;;;3.12;2.92;;;;;;;;;;5159380;27;20077;-64